Time;durP1;ratioP1;P1;durP2;ratioP2;P2;SDS_P1;SDS_P2;PMS_P1;PMS_P2;Temp;Humidity;BMP_temperature;BMP_pressure;BME280_temperature;BME280_humidity;BME280_pressure;Samples;Min_cycle;Max_cycle;Signal;HPM_P1;HPM_P2
2024/01/02 00:00:59;;;;;;;12.25;3.05;;;;;;;;;;5066508;28;20569;-59
2024/01/02 00:03:25;;;;;;;18.00;2.90;;;;;;;;;;5066249;28;20051;-59
2024/01/02 00:05:52;;;;;;;15.50;2.90;;;;;;;;;;5066187;28;20049;-63
2024/01/02 00:08:18;;;;;;;14.93;2.83;;;;;;;;;;5065685;28;20053;-62
2024/01/02 00:10:45;;;;;;;11.57;3.28;;;;;;;;;;5064280;28;20049;-62
2024/01/02 00:13:11;;;;;;;10.82;2.33;;;;;;;;;;5066256;28;20132;-62
2024/01/02 00:15:38;;;;;;;12.55;3.17;;;;;;;;;;5064868;28;20057;-61
2024/01/02 00:18:04;;;;;;;12.68;3.30;;;;;;;;;;5053361;28;20455;-61
2024/01/02 00:20:30;;;;;;;12.15;2.90;;;;;;;;;;5063044;28;20177;-62
2024/01/02 00:22:57;;;;;;;11.68;2.90;;;;;;;;;;5064136;28;20195;-61
2024/01/02 00:25:23;;;;;;;16.75;2.60;;;;;;;;;;5064537;28;20053;-61
2024/01/02 00:27:50;;;;;;;12.50;2.83;;;;;;;;;;5064429;28;20126;-61
2024/01/02 00:30:16;;;;;;;13.20;2.83;;;;;;;;;;5064330;28;20052;-61
2024/01/02 00:32:43;;;;;;;15.30;3.40;;;;;;;;;;5065348;28;20075;-62
2024/01/02 00:35:12;;;;;;;15.57;3.35;;;;;;;;;;5065181;28;20139;-62
2024/01/02 00:37:38;;;;;;;10.38;3.47;;;;;;;;;;5065017;28;20049;-61
2024/01/02 00:40:05;;;;;;;12.05;3.05;;;;;;;;;;5065063;28;20119;-61
2024/01/02 00:42:31;;;;;;;9.75;2.88;;;;;;;;;;5064869;28;20118;-62
2024/01/02 00:44:59;;;;;;;11.80;2.97;;;;;;;;;;5058393;28;20083;-62
2024/01/02 00:47:26;;;;;;;11.10;3.15;;;;;;;;;;5065376;28;20914;-61
2024/01/02 00:49:53;;;;;;;14.90;2.78;;;;;;;;;;5061380;28;20147;-60
2024/01/02 00:52:19;;;;;;;6.82;2.75;;;;;;;;;;5065574;28;20056;-61
2024/01/02 00:54:45;;;;;;;8.43;2.45;;;;;;;;;;5063661;28;20127;-61
2024/01/02 00:57:12;;;;;;;12.63;2.88;;;;;;;;;;5064200;28;20049;-61
2024/01/02 00:59:38;;;;;;;9.18;2.53;;;;;;;;;;5064628;28;20114;-61
2024/01/02 01:02:05;;;;;;;21.60;3.47;;;;;;;;;;5064667;28;20899;-61
2024/01/02 01:04:31;;;;;;;9.32;3.13;;;;;;;;;;5063441;28;20407;-62
2024/01/02 01:06:58;;;;;;;11.95;2.90;;;;;;;;;;5064173;28;20130;-61
2024/01/02 01:09:24;;;;;;;10.95;2.72;;;;;;;;;;5055430;28;20056;-60
2024/01/02 01:11:50;;;;;;;10.27;2.42;;;;;;;;;;5062553;28;20128;-61
2024/01/02 01:14:17;;;;;;;11.95;2.83;;;;;;;;;;5061476;28;20052;-61
2024/01/02 01:16:43;;;;;;;7.75;2.60;;;;;;;;;;5052412;28;20839;-61
2024/01/02 01:19:09;;;;;;;12.80;2.53;;;;;;;;;;5064346;28;20118;-60
2024/01/02 01:21:36;;;;;;;11.55;2.55;;;;;;;;;;5060700;28;20061;-61
2024/01/02 01:24:03;;;;;;;8.70;2.35;;;;;;;;;;5056467;28;20085;-61
2024/01/02 01:26:29;;;;;;;8.18;2.25;;;;;;;;;;5064072;28;20088;-60
2024/01/02 01:28:55;;;;;;;10.82;3.00;;;;;;;;;;5064788;28;20144;-60
2024/01/02 01:31:22;;;;;;;10.02;2.40;;;;;;;;;;5064394;28;20522;-60
2024/01/02 01:33:48;;;;;;;7.63;2.40;;;;;;;;;;5065360;28;20053;-61
2024/01/02 01:36:17;;;;;;;10.60;2.55;;;;;;;;;;5066995;28;20175;-61
2024/01/02 01:38:43;;;;;;;12.48;3.08;;;;;;;;;;5066764;28;20053;-61
2024/01/02 01:41:09;;;;;;;6.75;1.90;;;;;;;;;;5067590;28;20135;-61
2024/01/02 01:43:36;;;;;;;5.85;1.92;;;;;;;;;;5064609;28;20637;-60
2024/01/02 01:46:03;;;;;;;5.35;1.77;;;;;;;;;;5067715;28;20061;-61
2024/01/02 01:48:30;;;;;;;5.10;1.75;;;;;;;;;;5067262;28;20104;-61
2024/01/02 01:50:57;;;;;;;7.78;2.10;;;;;;;;;;5064360;28;20111;-61
2024/01/02 01:53:23;;;;;;;12.02;2.55;;;;;;;;;;5068297;28;20142;-61
2024/01/02 01:55:50;;;;;;;5.65;1.77;;;;;;;;;;5059136;28;20132;-61
2024/01/02 01:58:17;;;;;;;7.78;1.98;;;;;;;;;;5048229;28;20155;-61
2024/01/02 02:00:44;;;;;;;6.40;1.85;;;;;;;;;;5049482;28;20053;-61
2024/01/02 02:03:11;;;;;;;7.78;2.60;;;;;;;;;;5056614;28;20060;-61
2024/01/02 02:05:37;;;;;;;6.93;1.65;;;;;;;;;;5067012;28;20064;-61
2024/01/02 02:08:04;;;;;;;12.52;2.00;;;;;;;;;;5065365;28;20059;-61
2024/01/02 02:10:31;;;;;;;4.47;1.38;;;;;;;;;;5067481;28;20137;-61
2024/01/02 02:12:57;;;;;;;9.25;1.50;;;;;;;;;;5068091;28;20099;-61
2024/01/02 02:15:24;;;;;;;5.57;1.73;;;;;;;;;;5067392;28;20049;-61
2024/01/02 02:17:50;;;;;;;8.95;1.60;;;;;;;;;;5067482;28;20057;-61
2024/01/02 02:20:17;;;;;;;4.75;1.27;;;;;;;;;;5066875;28;20601;-61
2024/01/02 02:22:52;;;;;;;8.15;2.15;;;;;;;;;;5066303;28;20107;-60
2024/01/02 02:25:19;;;;;;;3.85;1.00;;;;;;;;;;5067407;28;20057;-61
2024/01/02 02:27:46;;;;;;;3.90;1.13;;;;;;;;;;5065219;28;20514;-60
2024/01/02 02:30:12;;;;;;;3.85;1.20;;;;;;;;;;5066260;28;20598;-61
2024/01/02 02:32:39;;;;;;;8.93;2.30;;;;;;;;;;5067275;28;20052;-61
2024/01/02 02:35:05;;;;;;;5.07;1.40;;;;;;;;;;5067044;28;20164;-61
2024/01/02 02:37:32;;;;;;;3.85;1.10;;;;;;;;;;5066608;28;20063;-61
2024/01/02 02:39:58;;;;;;;4.38;1.10;;;;;;;;;;5068205;28;20518;-61
2024/01/02 02:42:25;;;;;;;5.93;1.13;;;;;;;;;;5067101;28;20056;-61
2024/01/02 02:44:51;;;;;;;3.58;0.98;;;;;;;;;;5065773;28;20547;-61
2024/01/02 02:47:18;;;;;;;4.22;1.23;;;;;;;;;;5067979;28;20129;-59
2024/01/02 02:49:44;;;;;;;4.35;1.10;;;;;;;;;;5061236;28;20045;-59
2024/01/02 02:52:10;;;;;;;2.88;1.10;;;;;;;;;;5066662;28;20530;-60
2024/01/02 02:54:37;;;;;;;1.10;0.80;;;;;;;;;;5066218;28;20065;-60
2024/01/02 02:57:03;;;;;;;5.65;1.20;;;;;;;;;;5065476;28;20049;-61
2024/01/02 02:59:30;;;;;;;6.80;1.58;;;;;;;;;;5066204;28;20051;-61
2024/01/02 03:01:56;;;;;;;0.85;0.80;;;;;;;;;;5064347;28;20507;-60
2024/01/02 03:04:23;;;;;;;4.85;1.10;;;;;;;;;;5067486;28;20053;-60
2024/01/02 03:06:50;;;;;;;1.85;1.00;;;;;;;;;;5067288;28;20087;-61
2024/01/02 03:09:16;;;;;;;3.50;1.00;;;;;;;;;;5066414;28;20060;-61
2024/01/02 03:11:44;;;;;;;2.90;1.20;;;;;;;;;;5066864;28;20057;-61
2024/01/02 03:14:10;;;;;;;2.00;1.08;;;;;;;;;;5065053;28;20435;-61
2024/01/02 03:16:36;;;;;;;1.42;0.80;;;;;;;;;;5067152;28;20504;-60
2024/01/02 03:19:03;;;;;;;1.73;0.80;;;;;;;;;;5066415;28;20158;-60
2024/01/02 03:21:29;;;;;;;0.80;0.80;;;;;;;;;;5066217;28;20107;-61
2024/01/02 03:23:56;;;;;;;2.95;0.98;;;;;;;;;;5067070;28;20413;-61
2024/01/02 03:26:22;;;;;;;2.65;0.90;;;;;;;;;;5065732;28;20057;-60
2024/01/02 03:28:49;;;;;;;2.90;1.05;;;;;;;;;;5066194;28;20053;-61
2024/01/02 03:31:15;;;;;;;3.22;0.90;;;;;;;;;;5066178;28;20053;-61
2024/01/02 03:33:42;;;;;;;1.50;0.77;;;;;;;;;;5064392;28;20130;-60
2024/01/02 03:36:12;;;;;;;5.70;1.08;;;;;;;;;;5065814;28;20452;-61
2024/01/02 03:38:39;;;;;;;1.05;0.80;;;;;;;;;;5066292;28;20060;-60
2024/01/02 03:41:06;;;;;;;2.05;1.00;;;;;;;;;;5066071;28;20141;-61
2024/01/02 03:43:32;;;;;;;0.88;0.80;;;;;;;;;;5066497;28;20056;-60
2024/01/02 03:45:59;;;;;;;2.05;0.75;;;;;;;;;;5065135;28;20065;-61
2024/01/02 03:48:25;;;;;;;0.95;0.88;;;;;;;;;;5066397;28;20132;-61
2024/01/02 03:50:52;;;;;;;1.10;1.00;;;;;;;;;;5062082;28;20056;-60
2024/01/02 03:53:18;;;;;;;2.60;0.90;;;;;;;;;;5066123;28;20140;-61
2024/01/02 03:55:45;;;;;;;2.50;0.90;;;;;;;;;;5065392;28;20084;-61
2024/01/02 03:58:11;;;;;;;2.88;1.08;;;;;;;;;;5064744;28;20126;-61
2024/01/02 04:00:38;;;;;;;1.13;0.73;;;;;;;;;;5064908;28;20581;-61
2024/01/02 04:03:04;;;;;;;1.30;0.70;;;;;;;;;;5064512;28;20598;-59
2024/01/02 04:05:30;;;;;;;1.05;0.85;;;;;;;;;;5063959;28;20136;-61
2024/01/02 04:07:57;;;;;;;1.00;0.68;;;;;;;;;;5065982;28;20049;-61
2024/01/02 04:10:23;;;;;;;0.90;0.80;;;;;;;;;;5066856;28;20059;-60
2024/01/02 04:12:50;;;;;;;0.93;0.85;;;;;;;;;;5065710;28;20057;-60
2024/01/02 04:15:16;;;;;;;1.20;0.77;;;;;;;;;;5065525;28;20057;-60
2024/01/02 04:17:43;;;;;;;1.92;1.55;;;;;;;;;;5065086;28;20056;-60
2024/01/02 04:20:09;;;;;;;0.70;0.70;;;;;;;;;;5064935;28;20155;-60
2024/01/02 04:22:36;;;;;;;0.57;0.52;;;;;;;;;;5064144;28;20057;-60
2024/01/02 04:25:03;;;;;;;0.75;0.50;;;;;;;;;;5063841;28;20107;-60
2024/01/02 04:27:29;;;;;;;0.50;0.50;;;;;;;;;;5064481;28;20535;-58
2024/01/02 04:29:55;;;;;;;0.60;0.60;;;;;;;;;;5065209;28;20060;-60
2024/01/02 04:32:22;;;;;;;1.02;0.60;;;;;;;;;;5064936;28;20135;-61
2024/01/02 04:34:48;;;;;;;1.17;0.77;;;;;;;;;;5065627;28;20049;-60
2024/01/02 04:37:15;;;;;;;1.00;0.60;;;;;;;;;;5063759;28;20057;-61
2024/01/02 04:39:41;;;;;;;0.60;0.47;;;;;;;;;;5065472;28;20084;-61
2024/01/02 04:42:07;;;;;;;1.75;0.65;;;;;;;;;;5066145;28;20567;-60
2024/01/02 04:44:34;;;;;;;1.00;0.70;;;;;;;;;;5065186;28;20583;-61
2024/01/02 04:47:00;;;;;;;0.55;0.55;;;;;;;;;;5065575;28;20053;-60
2024/01/02 04:49:27;;;;;;;0.85;0.60;;;;;;;;;;5065371;28;20052;-60
2024/01/02 04:51:53;;;;;;;0.60;0.60;;;;;;;;;;5064709;28;20060;-61
2024/01/02 04:54:20;;;;;;;0.80;0.80;;;;;;;;;;5062824;28;20122;-60
2024/01/02 04:56:46;;;;;;;0.50;0.50;;;;;;;;;;5064416;28;20088;-61
2024/01/02 04:59:13;;;;;;;0.60;0.60;;;;;;;;;;5063410;28;20052;-61
2024/01/02 05:01:39;;;;;;;0.75;0.75;;;;;;;;;;5054272;28;20591;-61
2024/01/02 05:04:05;;;;;;;0.85;0.70;;;;;;;;;;5064616;28;20492;-60
2024/01/02 05:06:32;;;;;;;0.68;0.68;;;;;;;;;;5065430;28;20053;-61
2024/01/02 05:08:58;;;;;;;0.80;0.80;;;;;;;;;;5066019;28;20052;-61
2024/01/02 05:11:25;;;;;;;0.68;0.68;;;;;;;;;;5069416;28;20107;-60
2024/01/02 05:13:51;;;;;;;0.60;0.60;;;;;;;;;;5069072;28;20111;-61
2024/01/02 05:16:17;;;;;;;0.80;0.80;;;;;;;;;;5068390;28;20053;-59
2024/01/02 05:18:44;;;;;;;0.93;0.80;;;;;;;;;;5050268;28;20061;-61
2024/01/02 05:21:11;;;;;;;0.80;0.80;;;;;;;;;;5068932;28;20060;-61
2024/01/02 05:23:37;;;;;;;0.80;0.80;;;;;;;;;;5068484;28;20084;-61
2024/01/02 05:26:03;;;;;;;0.85;0.85;;;;;;;;;;5054987;28;20116;-61
2024/01/02 05:28:30;;;;;;;1.10;1.00;;;;;;;;;;5064424;28;20057;-61
2024/01/02 05:30:57;;;;;;;1.17;1.08;;;;;;;;;;5068327;28;20577;-60
2024/01/02 05:33:23;;;;;;;1.25;1.13;;;;;;;;;;5049235;28;20077;-59
2024/01/02 05:35:49;;;;;;;1.30;1.20;;;;;;;;;;5056364;28;20338;-61
2024/01/02 05:38:16;;;;;;;1.42;1.33;;;;;;;;;;5068729;28;20150;-60
2024/01/02 05:40:42;;;;;;;1.95;1.48;;;;;;;;;;5069011;28;20049;-61
2024/01/02 05:43:09;;;;;;;1.50;1.40;;;;;;;;;;5067680;28;20577;-61
2024/01/02 05:45:36;;;;;;;1.45;1.30;;;;;;;;;;5068035;28;20056;-60
2024/01/02 05:48:03;;;;;;;1.85;1.70;;;;;;;;;;5064499;28;20538;-61
2024/01/02 05:50:30;;;;;;;2.20;2.00;;;;;;;;;;5047741;28;20062;-60
2024/01/02 05:52:57;;;;;;;1.70;1.60;;;;;;;;;;5060118;28;20136;-61
2024/01/02 05:55:23;;;;;;;2.50;1.98;;;;;;;;;;5068692;28;20612;-61
2024/01/02 05:57:50;;;;;;;3.75;2.10;;;;;;;;;;5068044;28;20492;-61
2024/01/02 06:00:17;;;;;;;2.38;2.17;;;;;;;;;;5067412;28;20877;-61
2024/01/02 06:02:43;;;;;;;2.97;2.10;;;;;;;;;;5068103;28;20057;-60
2024/01/02 06:05:09;;;;;;;4.43;2.83;;;;;;;;;;5068149;28;20507;-61
2024/01/02 06:07:36;;;;;;;7.85;2.85;;;;;;;;;;5068157;28;20049;-61
2024/01/02 06:10:02;;;;;;;4.55;2.70;;;;;;;;;;5068343;28;20053;-60
2024/01/02 06:12:29;;;;;;;2.75;2.30;;;;;;;;;;5059427;28;20053;-60
2024/01/02 06:14:55;;;;;;;3.08;2.35;;;;;;;;;;5062723;28;20057;-60
2024/01/02 06:17:22;;;;;;;2.55;1.90;;;;;;;;;;5068387;28;20498;-60
2024/01/02 06:19:48;;;;;;;6.80;2.30;;;;;;;;;;5056139;28;20100;-58
2024/01/02 06:22:15;;;;;;;6.50;2.33;;;;;;;;;;5053754;28;20059;-60
2024/01/02 06:24:41;;;;;;;4.88;2.55;;;;;;;;;;5049467;28;20056;-61
2024/01/02 06:27:08;;;;;;;6.50;2.85;;;;;;;;;;5047643;28;20081;-61
2024/01/02 06:29:34;;;;;;;10.98;3.58;;;;;;;;;;5048513;28;20539;-61
2024/01/02 06:32:02;;;;;;;10.07;4.82;;;;;;;;;;5057959;28;20149;-61
2024/01/02 06:34:29;;;;;;;13.25;4.05;;;;;;;;;;5067530;28;20053;-61
2024/01/02 06:36:55;;;;;;;15.52;3.58;;;;;;;;;;5066187;28;20142;-61
2024/01/02 06:39:21;;;;;;;11.13;3.58;;;;;;;;;;5068313;28;20086;-61
2024/01/02 06:41:48;;;;;;;14.20;3.33;;;;;;;;;;5055093;28;20053;-61
2024/01/02 06:44:15;;;;;;;12.88;3.67;;;;;;;;;;5053134;28;20057;-61
2024/01/02 06:46:42;;;;;;;16.20;4.38;;;;;;;;;;5067423;28;20056;-61
2024/01/02 06:49:09;;;;;;;17.02;4.18;;;;;;;;;;5066547;28;20565;-61
2024/01/02 06:51:35;;;;;;;15.70;4.03;;;;;;;;;;5066501;28;20064;-60
2024/01/02 06:54:02;;;;;;;19.85;3.97;;;;;;;;;;5063942;28;20547;-60
2024/01/02 06:56:28;;;;;;;20.67;4.07;;;;;;;;;;5065183;28;20044;-60
2024/01/02 06:58:55;;;;;;;10.68;3.47;;;;;;;;;;5071862;28;20931;-61
2024/01/02 07:01:25;;;;;;;17.42;3.40;;;;;;;;;;5063245;28;20135;-60
2024/01/02 07:03:52;;;;;;;13.48;3.30;;;;;;;;;;5064497;28;20123;-60
2024/01/02 07:06:18;;;;;;;14.35;3.35;;;;;;;;;;5064526;28;20057;-60
2024/01/02 07:08:45;;;;;;;17.17;3.33;;;;;;;;;;5063474;28;20085;-61
2024/01/02 07:11:12;;;;;;;24.80;3.40;;;;;;;;;;5063622;28;20063;-61
2024/01/02 07:13:38;;;;;;;18.63;3.05;;;;;;;;;;5063745;28;20056;-60
2024/01/02 07:16:05;;;;;;;20.45;3.28;;;;;;;;;;5063695;28;20056;-59
2024/01/02 07:18:31;;;;;;;18.70;3.05;;;;;;;;;;5062840;28;20135;-60
2024/01/02 07:20:58;;;;;;;26.67;3.85;;;;;;;;;;5063951;28;20063;-60
2024/01/02 07:23:25;;;;;;;18.52;3.45;;;;;;;;;;5063411;28;20064;-60
2024/01/02 07:25:51;;;;;;;23.23;3.95;;;;;;;;;;5062867;28;20052;-60
2024/01/02 07:28:18;;;;;;;19.83;3.45;;;;;;;;;;5060419;28;20061;-60
2024/01/02 07:30:47;;;;;;;25.92;3.30;;;;;;;;;;5063165;28;20065;-59
2024/01/02 07:33:14;;;;;;;19.50;3.58;;;;;;;;;;5063162;28;20052;-60
2024/01/02 07:35:41;;;;;;;24.52;4.20;;;;;;;;;;5055893;28;20411;-60
2024/01/02 07:38:07;;;;;;;23.67;3.17;;;;;;;;;;5058078;28;20049;-59
2024/01/02 07:40:34;;;;;;;18.73;3.25;;;;;;;;;;5063483;28;20056;-60
2024/01/02 07:43:01;;;;;;;18.48;3.83;;;;;;;;;;5057200;28;20050;-59
2024/01/02 07:45:28;;;;;;;37.15;7.93;;;;;;;;;;5061500;28;20061;-60
2024/01/02 07:47:54;;;;;;;21.60;3.20;;;;;;;;;;5063487;28;20762;-60
2024/01/02 07:50:21;;;;;;;28.98;4.53;;;;;;;;;;5063589;28;20056;-58
2024/01/02 07:52:50;;;;;;;23.95;3.85;;;;;;;;;;5061639;28;20060;-60
2024/01/02 07:55:17;;;;;;;21.63;3.97;;;;;;;;;;5076536;28;20707;-60
2024/01/02 07:57:43;;;;;;;20.65;3.00;;;;;;;;;;5071746;28;20056;-59
2024/01/02 08:00:10;;;;;;;19.75;2.90;;;;;;;;;;5062298;28;20060;-60
2024/01/02 08:02:36;;;;;;;22.88;4.25;;;;;;;;;;5061480;28;20063;-60
2024/01/02 08:05:03;;;;;;;33.10;4.60;;;;;;;;;;5062892;28;20517;-60
2024/01/02 08:07:30;;;;;;;25.02;5.85;;;;;;;;;;5062672;28;20059;-58
2024/01/02 08:09:56;;;;;;;19.85;3.10;;;;;;;;;;5062396;28;20541;-60
2024/01/02 08:12:23;;;;;;;26.08;3.72;;;;;;;;;;5063481;28;20171;-59
2024/01/02 08:14:49;;;;;;;27.33;4.05;;;;;;;;;;5061378;28;20057;-59
2024/01/02 08:17:20;;;;;;;35.70;6.40;;;;;;;;;;5063238;28;20511;-60
2024/01/02 08:19:46;;;;;;;18.92;3.90;;;;;;;;;;5062683;28;20148;-59
2024/01/02 08:22:13;;;;;;;26.25;4.20;;;;;;;;;;5062470;28;20466;-59
2024/01/02 08:24:40;;;;;;;28.83;6.20;;;;;;;;;;5062310;28;20053;-58
2024/01/02 08:27:06;;;;;;;23.10;4.10;;;;;;;;;;5062423;28;20492;-60
2024/01/02 08:29:32;;;;;;;24.95;4.63;;;;;;;;;;5061577;28;20786;-60
2024/01/02 08:32:00;;;;;;;24.23;4.43;;;;;;;;;;5062598;28;20393;-59
2024/01/02 08:34:26;;;;;;;24.75;4.85;;;;;;;;;;5061981;28;20578;-60
2024/01/02 08:36:53;;;;;;;25.80;4.43;;;;;;;;;;5061625;28;20155;-59
2024/01/02 08:39:19;;;;;;;22.70;5.07;;;;;;;;;;5063218;28;20132;-60
2024/01/02 08:41:46;;;;;;;25.90;4.38;;;;;;;;;;5061567;28;20053;-59
2024/01/02 08:44:12;;;;;;;25.17;4.45;;;;;;;;;;5061898;28;20057;-59
2024/01/02 08:46:39;;;;;;;31.92;5.18;;;;;;;;;;5062812;28;20052;-60
2024/01/02 08:49:06;;;;;;;33.15;6.03;;;;;;;;;;5062728;28;20053;-60
2024/01/02 08:51:33;;;;;;;21.17;4.45;;;;;;;;;;5061557;28;20136;-60
2024/01/02 08:54:00;;;;;;;33.53;5.80;;;;;;;;;;5062221;28;20053;-59
2024/01/02 08:56:26;;;;;;;33.65;5.07;;;;;;;;;;5061408;28;20057;-60
2024/01/02 08:58:53;;;;;;;41.13;5.45;;;;;;;;;;5062237;28;20053;-59
2024/01/02 09:01:19;;;;;;;24.05;4.53;;;;;;;;;;5063185;28;20512;-60
2024/01/02 09:03:45;;;;;;;28.85;4.65;;;;;;;;;;5061620;28;20059;-60
2024/01/02 09:06:15;;;;;;;27.48;4.45;;;;;;;;;;5061549;28;20057;-59
2024/01/02 09:08:42;;;;;;;30.55;4.72;;;;;;;;;;5062181;28;20060;-59
2024/01/02 09:11:11;;;;;;;27.55;5.07;;;;;;;;;;5061861;28;20408;-60
2024/01/02 09:13:38;;;;;;;33.80;6.30;;;;;;;;;;5062178;28;20480;-60
2024/01/02 09:16:06;;;;;;;22.33;4.38;;;;;;;;;;5061820;28;20053;-58
2024/01/02 09:18:34;;;;;;;32.10;6.90;;;;;;;;;;5061779;28;20053;-60
2024/01/02 09:21:01;;;;;;;22.58;4.88;;;;;;;;;;5061959;28;20057;-59
2024/01/02 09:23:28;;;;;;;26.67;4.93;;;;;;;;;;5061115;28;20057;-59
2024/01/02 09:25:58;;;;;;;28.35;5.15;;;;;;;;;;5061817;28;20067;-59
2024/01/02 09:28:25;;;;;;;28.00;5.68;;;;;;;;;;5061892;28;20142;-60
2024/01/02 09:30:52;;;;;;;33.72;5.15;;;;;;;;;;5062393;28;20060;-60
2024/01/02 09:33:18;;;;;;;29.83;4.95;;;;;;;;;;5062802;28;20049;-59
2024/01/02 09:35:45;;;;;;;26.27;4.85;;;;;;;;;;5070690;28;20119;-60
2024/01/02 09:38:12;;;;;;;25.98;4.22;;;;;;;;;;5082208;28;20075;-60
2024/01/02 09:40:51;;;;;;;25.45;4.55;;;;;;;;;;5064816;28;20057;-61
2024/01/02 09:43:18;;;;;;;24.60;5.05;;;;;;;;;;5062647;28;20053;-61
2024/01/02 09:46:04;;;;;;;41.80;6.18;;;;;;;;;;5061548;28;20145;-60
2024/01/02 09:48:52;;;;;;;34.30;5.20;;;;;;;;;;5041070;28;20054;-59
2024/01/02 09:51:37;;;;;;;32.38;5.57;;;;;;;;;;5042205;28;20052;-60
2024/01/02 09:54:04;;;;;;;35.65;6.22;;;;;;;;;;5059023;28;20111;-63
2024/01/02 09:56:37;;;;;;;30.05;6.82;;;;;;;;;;5064220;28;20049;-59
2024/01/02 09:59:09;;;;;;;34.00;7.38;;;;;;;;;;5065088;28;20049;-61
2024/01/02 10:01:54;;;;;;;31.08;5.65;;;;;;;;;;5064717;28;20053;-60
2024/01/02 10:04:21;;;;;;;33.63;7.05;;;;;;;;;;5044677;28;20053;-60
2024/01/02 10:06:53;;;;;;;26.55;5.60;;;;;;;;;;5051375;28;20056;-60
2024/01/02 10:09:32;;;;;;;32.17;5.15;;;;;;;;;;5064712;28;20055;-60
2024/01/02 10:12:17;;;;;;;30.67;5.30;;;;;;;;;;5064870;28;20049;-60
2024/01/02 10:14:47;;;;;;;25.13;6.05;;;;;;;;;;5064419;28;20076;-57
2024/01/02 10:17:36;;;;;;;35.25;5.38;;;;;;;;;;5044857;28;20057;-60
2024/01/02 10:20:22;;;;;;;35.05;5.68;;;;;;;;;;5011693;28;20065;-61
2024/01/02 10:22:57;;;;;;;34.38;5.38;;;;;;;;;;5022181;28;20089;-60
2024/01/02 10:25:25;;;;;;;36.65;6.03;;;;;;;;;;5002018;28;20054;-60
2024/01/02 10:27:57;;;;;;;40.22;6.65;;;;;;;;;;5002156;28;20998;-60
2024/01/02 10:30:26;;;;;;;39.55;7.57;;;;;;;;;;5002312;28;20053;-59
2024/01/02 10:33:11;;;;;;;37.15;6.65;;;;;;;;;;5014297;28;20053;-61
2024/01/02 10:35:44;;;;;;;36.92;6.07;;;;;;;;;;5021859;28;20583;-60
2024/01/02 10:38:18;;;;;;;33.92;5.93;;;;;;;;;;5021467;28;20054;-60
2024/01/02 10:40:48;;;;;;;39.35;6.50;;;;;;;;;;5017024;28;20138;-60
2024/01/02 10:43:28;;;;;;;38.42;6.72;;;;;;;;;;5021434;28;20062;-59
2024/01/02 10:46:02;;;;;;;27.08;5.90;;;;;;;;;;5021054;28;20062;-59
2024/01/02 10:48:30;;;;;;;23.13;5.78;;;;;;;;;;5017940;28;20054;-59
2024/01/02 10:51:08;;;;;;;37.97;6.20;;;;;;;;;;5021576;28;20058;-60
2024/01/02 10:53:44;;;;;;;25.33;5.55;;;;;;;;;;5022191;28;20116;-60
2024/01/02 10:56:14;;;;;;;23.83;5.05;;;;;;;;;;5024015;28;20050;-59
2024/01/02 10:59:07;;;;;;;29.90;6.03;;;;;;;;;;5063252;28;20053;-59
2024/01/02 11:01:37;;;;;;;19.05;4.45;;;;;;;;;;5041427;28;20757;-59
2024/01/02 11:04:31;;;;;;;20.48;4.60;;;;;;;;;;5064141;28;20096;-60
2024/01/02 11:07:05;;;;;;;26.52;4.68;;;;;;;;;;5064729;28;20111;-60
2024/01/02 11:09:40;;;;;;;17.10;4.55;;;;;;;;;;5062883;28;20409;-59
2024/01/02 11:12:06;;;;;;;;;;;;;;;;;;5063857;28;20389;-59
2024/01/02 11:14:49;;;;;;;19.65;4.70;;;;;;;;;;5061987;28;46835;-58
2024/01/02 11:17:17;;;;;;;16.35;4.68;;;;;;;;;;5084022;28;20068;-59
2024/01/02 11:19:51;;;;;;;21.58;4.65;;;;;;;;;;5063651;28;20107;-59
2024/01/02 11:22:39;;;;;;;25.60;5.57;;;;;;;;;;5063932;28;20045;-60
2024/01/02 11:25:08;;;;;;;15.38;4.47;;;;;;;;;;5064504;28;20057;-60
2024/01/02 11:27:36;;;;;;;15.15;4.93;;;;;;;;;;5063857;28;20052;-60
2024/01/02 11:30:05;;;;;;;13.68;4.85;;;;;;;;;;5063161;28;20468;-59
2024/01/02 11:32:38;;;;;;;11.60;4.25;;;;;;;;;;5063553;28;20539;-59
2024/01/02 11:35:06;;;;;;;19.95;4.93;;;;;;;;;;5064190;28;20064;-59
2024/01/02 11:37:35;;;;;;;13.48;4.53;;;;;;;;;;5063554;28;20045;-60
2024/01/02 11:40:10;;;;;;;18.58;5.15;;;;;;;;;;5063866;28;20057;-59
2024/01/02 11:42:45;;;;;;;12.20;5.20;;;;;;;;;;5063628;28;20057;-59
2024/01/02 11:45:15;;;;;;;17.05;5.15;;;;;;;;;;5062151;28;20126;-60
2024/01/02 11:47:43;;;;;;;14.30;6.38;;;;;;;;;;5062662;28;20048;-60
2024/01/02 11:50:12;;;;;;;15.20;7.32;;;;;;;;;;5062485;28;20056;-59
2024/01/02 11:52:55;;;;;;;19.23;7.88;;;;;;;;;;5063103;28;20053;-60
2024/01/02 11:55:24;;;;;;;16.15;8.48;;;;;;;;;;5063140;28;20053;-60
2024/01/02 11:57:51;;;;;;;14.73;8.07;;;;;;;;;;5061395;28;20064;-60
2024/01/02 12:00:24;;;;;;;18.88;7.80;;;;;;;;;;5063434;28;20053;-59
2024/01/02 12:03:00;;;;;;;9.13;6.68;;;;;;;;;;5062522;28;20111;-60
2024/01/02 12:05:38;;;;;;;7.40;6.20;;;;;;;;;;5062702;28;20515;-60
2024/01/02 12:08:15;;;;;;;8.63;6.80;;;;;;;;;;5061375;28;20561;-58
2024/01/02 12:10:49;;;;;;;7.78;5.63;;;;;;;;;;5062666;28;20057;-59
2024/01/02 12:13:16;;;;;;;6.22;5.43;;;;;;;;;;5062776;28;20108;-59
2024/01/02 12:15:44;;;;;;;4.93;4.43;;;;;;;;;;5062089;28;20114;-59
2024/01/02 12:18:12;;;;;;;3.67;3.30;;;;;;;;;;5061658;28;20048;-60
2024/01/02 12:20:39;;;;;;;4.10;3.08;;;;;;;;;;5062461;28;20053;-58
2024/01/02 12:23:06;;;;;;;2.13;1.88;;;;;;;;;;5063417;28;20084;-58
2024/01/02 12:25:33;;;;;;;1.98;1.80;;;;;;;;;;5061952;28;20369;-60
2024/01/02 12:28:00;;;;;;;1.73;1.60;;;;;;;;;;5061477;28;20049;-60
2024/01/02 12:30:34;;;;;;;3.58;1.75;;;;;;;;;;5062481;28;20615;-58
2024/01/02 12:33:09;;;;;;;1.30;1.20;;;;;;;;;;5062445;28;20057;-58
2024/01/02 12:35:36;;;;;;;;;;;;;;;;;;5062962;28;20487;-59
2024/01/02 12:38:10;;;;;;;1.70;1.60;;;;;;;;;;5061576;28;46947;-60
2024/01/02 12:40:41;;;;;;;1.60;1.40;;;;;;;;;;5061399;28;20558;-60
2024/01/02 12:43:10;;;;;;;1.30;1.20;;;;;;;;;;5062635;28;20513;-60
2024/01/02 12:45:42;;;;;;;2.10;1.40;;;;;;;;;;5062103;28;20159;-59
2024/01/02 12:48:09;;;;;;;1.38;1.27;;;;;;;;;;5062960;28;20139;-59
2024/01/02 12:50:38;;;;;;;1.45;1.33;;;;;;;;;;5062564;28;20426;-60
2024/01/02 12:53:09;;;;;;;0.93;0.93;;;;;;;;;;5061908;28;20060;-60
2024/01/02 12:55:37;;;;;;;3.28;1.10;;;;;;;;;;5042407;28;20111;-60
2024/01/02 12:58:04;;;;;;;1.25;1.15;;;;;;;;;;5058314;28;20053;-59
2024/01/02 13:00:31;;;;;;;1.38;1.27;;;;;;;;;;5060883;28;20068;-61
2024/01/02 13:02:57;;;;;;;2.35;1.80;;;;;;;;;;5062595;28;20144;-61
2024/01/02 13:05:25;;;;;;;1.60;1.50;;;;;;;;;;5061953;28;20416;-61
2024/01/02 13:07:52;;;;;;;1.65;1.55;;;;;;;;;;5062154;28;20053;-61
2024/01/02 13:10:23;;;;;;;1.65;1.42;;;;;;;;;;5062168;28;20060;-61
2024/01/02 13:12:50;;;;;;;1.48;1.30;;;;;;;;;;5070829;28;20049;-60
2024/01/02 13:15:17;;;;;;;1.40;1.30;;;;;;;;;;5080593;28;20056;-61
2024/01/02 13:17:43;;;;;;;4.13;1.48;;;;;;;;;;5081269;28;20564;-61
2024/01/02 13:20:10;;;;;;;1.10;1.10;;;;;;;;;;5082412;28;20505;-60
2024/01/02 13:22:37;;;;;;;1.80;1.20;;;;;;;;;;5064285;28;20187;-61
2024/01/02 13:25:25;;;;;;;2.42;1.38;;;;;;;;;;5061514;28;20049;-60
2024/01/02 13:27:54;;;;;;;0.95;0.95;;;;;;;;;;5061592;28;20427;-60
2024/01/02 13:30:42;;;;;;;1.00;1.00;;;;;;;;;;5064227;28;20061;-61
2024/01/02 13:33:09;;;;;;;1.58;0.90;;;;;;;;;;5065692;28;20057;-60
2024/01/02 13:35:37;;;;;;;1.00;0.80;;;;;;;;;;5064794;28;20138;-60
2024/01/02 13:38:04;;;;;;;1.33;0.90;;;;;;;;;;5065214;28;20084;-60
2024/01/02 13:40:31;;;;;;;1.17;0.70;;;;;;;;;;5064251;28;20081;-60
2024/01/02 13:42:58;;;;;;;1.40;0.88;;;;;;;;;;5064895;28;20146;-60
2024/01/02 13:45:26;;;;;;;0.95;0.68;;;;;;;;;;5064414;28;20061;-61
2024/01/02 13:47:54;;;;;;;1.98;0.60;;;;;;;;;;5063384;28;20053;-60
2024/01/02 13:50:26;;;;;;;1.45;0.80;;;;;;;;;;5054983;28;20054;-61
2024/01/02 13:52:59;;;;;;;1.90;0.70;;;;;;;;;;5045965;28;20124;-60
2024/01/02 13:55:28;;;;;;;0.80;0.80;;;;;;;;;;5064120;28;20586;-61
2024/01/02 13:57:54;;;;;;;1.05;0.90;;;;;;;;;;5063282;28;20057;-60
2024/01/02 14:00:23;;;;;;;0.93;0.90;;;;;;;;;;5065193;28;20140;-60
2024/01/02 14:02:54;;;;;;;1.05;1.00;;;;;;;;;;5064827;28;20060;-61
2024/01/02 14:05:22;;;;;;;0.80;0.80;;;;;;;;;;5047876;28;20128;-61
2024/01/02 14:07:49;;;;;;;0.82;0.82;;;;;;;;;;5064933;28;20052;-60
2024/01/02 14:10:24;;;;;;;1.20;1.10;;;;;;;;;;5064403;28;20219;-60
2024/01/02 14:12:52;;;;;;;6.25;1.10;;;;;;;;;;5065036;28;20045;-61
2024/01/02 14:15:19;;;;;;;1.17;1.08;;;;;;;;;;5085757;28;20056;-60
2024/01/02 14:17:48;;;;;;;1.10;1.02;;;;;;;;;;5076751;28;20048;-60
2024/01/02 14:20:18;;;;;;;1.38;0.88;;;;;;;;;;5070387;28;20491;-61
2024/01/02 14:22:52;;;;;;;1.23;1.00;;;;;;;;;;5064495;28;20136;-60
2024/01/02 14:25:29;;;;;;;1.00;1.00;;;;;;;;;;5064120;28;20556;-61
2024/01/02 14:28:03;;;;;;;1.88;1.20;;;;;;;;;;5063937;28;20056;-60
2024/01/02 14:30:41;;;;;;;2.55;1.20;;;;;;;;;;5073615;28;20053;-60
2024/01/02 14:33:14;;;;;;;1.73;1.40;;;;;;;;;;5071562;28;20057;-61
2024/01/02 14:35:41;;;;;;;2.20;1.40;;;;;;;;;;5053589;28;20056;-60
2024/01/02 14:38:07;;;;;;;2.20;1.20;;;;;;;;;;5063062;28;20060;-60
2024/01/02 14:40:43;;;;;;;1.60;1.50;;;;;;;;;;5052103;28;20086;-60
2024/01/02 14:43:18;;;;;;;1.80;1.60;;;;;;;;;;5064706;28;20504;-60
2024/01/02 14:45:44;;;;;;;;;;;;;;;;;;5050359;28;20065;-61